createdAt,value
2022-10-08T00:01:17.473Z,100.00
2022-10-08T00:04:05.953Z,100.00
2022-10-08T00:06:40.135Z,100.00
2022-10-08T00:09:21.723Z,100.00
2022-10-08T00:11:54.786Z,100.00
2022-10-08T00:14:28.770Z,100.00
2022-10-08T00:16:58.703Z,100.00
2022-10-08T00:19:31.699Z,100.00
2022-10-08T00:22:05.231Z,100.00
2022-10-08T00:24:41.762Z,100.00
2022-10-08T00:27:16.733Z,100.00
2022-10-08T00:29:57.864Z,100.00
2022-10-08T00:32:32.507Z,100.00
2022-10-08T00:35:01.732Z,100.00
2022-10-08T00:37:30.476Z,100.00
2022-10-08T00:39:59.780Z,100.00
2022-10-08T00:42:30.678Z,100.00
2022-10-08T00:45:02.892Z,100.00
2022-10-08T00:47:42.698Z,100.00
2022-10-08T00:50:26.429Z,100.00
2022-10-08T00:53:07.560Z,100.00
2022-10-08T00:55:46.496Z,100.00
2022-10-08T00:58:25.271Z,100.00
2022-10-08T01:00:53.405Z,100.00
2022-10-08T01:03:38.833Z,100.00
2022-10-08T01:06:41.289Z,100.00
2022-10-08T01:09:45.061Z,100.00
2022-10-08T01:13:01.422Z,100.00
2022-10-08T01:15:42.383Z,100.00
2022-10-08T01:18:50.320Z,100.00
2022-10-08T01:22:01.626Z,100.00
2022-10-08T01:25:42.203Z,100.00
2022-10-08T01:28:59.392Z,100.00
2022-10-08T01:32:04.942Z,100.00
2022-10-08T01:34:47.390Z,100.00
2022-10-08T01:37:31.079Z,100.00
2022-10-08T01:40:35.301Z,100.00
2022-10-08T01:43:14.306Z,100.00
2022-10-08T01:46:00.506Z,100.00
2022-10-08T01:48:37.217Z,100.00
2022-10-08T01:51:17.262Z,100.00
2022-10-08T01:53:48.153Z,100.00
2022-10-08T01:56:24.270Z,100.00
2022-10-08T01:59:29.363Z,100.00
2022-10-08T02:02:14.523Z,100.00
2022-10-08T02:04:45.725Z,100.00
2022-10-08T02:10:12.034Z,100.00
2022-10-08T02:12:49.736Z,100.00
2022-10-08T02:15:56.378Z,100.00
2022-10-08T02:21:45.863Z,100.00
2022-10-08T02:24:21.999Z,100.00
2022-10-08T02:27:03.092Z,100.00
2022-10-08T02:29:43.109Z,100.00
2022-10-08T02:32:27.810Z,100.00
2022-10-08T02:35:06.004Z,100.00
2022-10-08T02:37:41.227Z,100.00
2022-10-08T02:40:14.881Z,100.00
2022-10-08T02:42:55.411Z,100.00
2022-10-08T02:45:30.170Z,100.00
2022-10-08T02:48:17.239Z,100.00
2022-10-08T02:50:50.518Z,100.00
2022-10-08T02:53:35.042Z,100.00
2022-10-08T02:56:31.129Z,100.00
2022-10-08T02:59:00.919Z,100.00
2022-10-08T03:01:51.580Z,100.00
2022-10-08T03:04:53.313Z,100.00
2022-10-08T03:07:35.049Z,100.00
2022-10-08T03:10:14.923Z,100.00
2022-10-08T03:12:44.636Z,100.00
2022-10-08T03:15:18.743Z,100.00
2022-10-08T03:18:01.274Z,100.00
2022-10-08T03:20:49.494Z,100.00
2022-10-08T03:23:35.853Z,100.00
2022-10-08T03:26:11.038Z,100.00
2022-10-08T03:28:46.672Z,100.00
2022-10-08T03:31:20.496Z,100.00
2022-10-08T03:33:55.556Z,100.00
2022-10-08T03:36:26.772Z,100.00
2022-10-08T03:41:47.566Z,100.00
2022-10-08T03:44:32.642Z,100.00
2022-10-08T03:47:13.409Z,100.00
2022-10-08T03:49:46.951Z,100.00
2022-10-08T03:52:29.279Z,100.00
2022-10-08T03:55:03.536Z,100.00
2022-10-08T03:57:40.005Z,100.00
2022-10-08T04:00:14.522Z,100.00
2022-10-08T04:02:48.674Z,100.00
2022-10-08T04:05:31.945Z,100.00
2022-10-08T04:08:17.063Z,100.00
2022-10-08T04:10:48.085Z,100.00
2022-10-08T04:13:22.614Z,100.00
2022-10-08T04:15:53.290Z,100.00
2022-10-08T04:18:37.421Z,100.00
2022-10-08T04:21:15.748Z,100.00
2022-10-08T04:23:59.222Z,100.00
2022-10-08T04:26:32.647Z,100.00
2022-10-08T04:29:01.567Z,100.00
2022-10-08T04:31:30.221Z,100.00
2022-10-08T04:34:13.327Z,100.00
2022-10-08T04:36:52.011Z,100.00
2022-10-08T04:39:25.962Z,100.00
2022-10-08T04:41:54.542Z,100.00
2022-10-08T04:44:28.231Z,100.00
2022-10-08T04:47:03.802Z,100.00
2022-10-08T04:49:40.299Z,100.00
2022-10-08T04:52:13.828Z,100.00
2022-10-08T04:54:44.887Z,100.00
2022-10-08T04:57:14.743Z,100.00
2022-10-08T05:00:05.783Z,100.00
2022-10-08T05:02:37.409Z,100.00
2022-10-08T05:05:09.488Z,100.00
2022-10-08T05:07:37.136Z,100.00
2022-10-08T05:10:13.007Z,100.00
2022-10-08T05:12:50.823Z,100.00
2022-10-08T05:15:19.180Z,100.00
2022-10-08T05:17:49.186Z,100.00
2022-10-08T05:20:20.016Z,100.00
2022-10-08T05:22:54.831Z,100.00
2022-10-08T05:25:28.329Z,100.00
2022-10-08T05:28:06.668Z,100.00
2022-10-08T05:30:41.038Z,100.00
2022-10-08T05:33:18.789Z,100.00
2022-10-08T05:35:48.794Z,100.00
2022-10-08T05:38:21.754Z,100.00
2022-10-08T05:40:55.246Z,100.00
2022-10-08T05:43:30.153Z,100.00
2022-10-08T05:45:59.499Z,100.00
2022-10-08T05:48:29.857Z,100.00
2022-10-08T05:51:06.021Z,100.00
2022-10-08T05:53:39.566Z,100.00
2022-10-08T05:56:26.453Z,100.00
2022-10-08T05:58:57.969Z,100.00
2022-10-08T06:01:33.157Z,100.00
2022-10-08T06:04:09.271Z,100.00
2022-10-08T06:06:46.988Z,100.00
2022-10-08T06:09:20.492Z,100.00
2022-10-08T06:11:54.194Z,100.00
2022-10-08T06:14:32.525Z,100.00
2022-10-08T06:17:07.690Z,100.00
2022-10-08T06:19:39.503Z,100.00
2022-10-08T06:22:13.171Z,100.00
2022-10-08T06:24:44.395Z,100.00
2022-10-08T06:27:33.444Z,100.00
2022-10-08T06:32:56.562Z,100.00
2022-10-08T06:35:35.422Z,100.00
2022-10-08T06:38:06.183Z,100.00
2022-10-08T06:40:40.567Z,100.00
2022-10-08T06:43:22.929Z,100.00
2022-10-08T06:45:59.548Z,100.00
2022-10-08T06:48:31.170Z,100.00
2022-10-08T06:51:10.085Z,100.00
2022-10-08T06:53:45.668Z,100.00
2022-10-08T06:56:18.121Z,100.00
2022-10-08T06:58:50.553Z,100.00
2022-10-08T07:01:33.732Z,100.00
2022-10-08T07:04:05.025Z,100.00
2022-10-08T07:06:35.476Z,100.00
2022-10-08T07:09:11.195Z,100.00
2022-10-08T07:11:42.093Z,100.00
2022-10-08T07:14:18.501Z,100.00
2022-10-08T07:16:52.415Z,100.00
2022-10-08T07:19:26.991Z,100.00
2022-10-08T07:22:01.465Z,100.00
2022-10-08T07:24:45.295Z,100.00
2022-10-08T07:27:15.501Z,100.00
2022-10-08T07:29:58.906Z,100.00
2022-10-08T07:32:29.738Z,100.00
2022-10-08T07:35:01.645Z,100.00
2022-10-08T07:37:33.583Z,100.00
2022-10-08T07:40:02.884Z,100.00
2022-10-08T07:42:50.236Z,100.00
2022-10-08T07:45:21.962Z,100.00
2022-10-08T07:47:50.680Z,100.00
2022-10-08T07:50:24.502Z,100.00
2022-10-08T07:53:00.224Z,100.00
2022-10-08T07:55:34.437Z,100.00
2022-10-08T07:58:05.603Z,100.00
2022-10-08T08:00:41.039Z,100.00
2022-10-08T08:03:14.417Z,100.00
2022-10-08T08:05:42.083Z,100.00
2022-10-08T08:08:14.489Z,100.00
2022-10-08T08:11:07.975Z,100.00
2022-10-08T08:13:38.140Z,100.00
2022-10-08T08:16:22.242Z,100.00
2022-10-08T08:18:56.404Z,100.00
2022-10-08T08:21:28.854Z,100.00
2022-10-08T08:24:05.206Z,100.00
2022-10-08T08:26:39.902Z,100.00
2022-10-08T08:29:16.630Z,100.00
2022-10-08T08:31:46.784Z,100.00
2022-10-08T08:34:28.793Z,100.00
2022-10-08T08:37:02.028Z,100.00
2022-10-08T08:39:41.008Z,100.00
2022-10-08T08:42:52.973Z,100.00
2022-10-08T08:45:46.027Z,100.00
2022-10-08T08:48:23.729Z,100.00
2022-10-08T08:50:55.486Z,100.00
2022-10-08T08:53:24.310Z,100.00
2022-10-08T08:56:37.566Z,100.00
2022-10-08T08:59:38.480Z,100.00
2022-10-08T09:02:23.866Z,100.00
2022-10-08T09:05:08.174Z,100.00
2022-10-08T09:07:47.341Z,100.00
2022-10-08T09:13:18.266Z,100.00
2022-10-08T09:15:50.447Z,100.00
2022-10-08T09:18:29.618Z,100.00
2022-10-08T09:21:09.017Z,100.00
2022-10-08T09:23:41.224Z,100.00
2022-10-08T09:26:25.782Z,100.00
2022-10-08T09:29:04.995Z,100.00
2022-10-08T09:31:52.664Z,100.00
2022-10-08T09:34:23.242Z,100.00
2022-10-08T09:37:23.629Z,100.00
2022-10-08T09:40:27.854Z,100.00
2022-10-08T09:43:23.583Z,100.00
2022-10-08T09:45:57.739Z,100.00
2022-10-08T09:48:32.274Z,100.00
2022-10-08T09:51:23.099Z,100.00
2022-10-08T09:54:03.404Z,100.00
2022-10-08T09:56:50.685Z,100.00
2022-10-08T09:59:28.754Z,100.00
2022-10-08T10:01:57.845Z,100.00
2022-10-08T10:04:37.502Z,100.00
2022-10-08T10:10:05.757Z,100.00
2022-10-08T10:12:39.076Z,100.00
2022-10-08T10:15:45.644Z,100.00
2022-10-08T10:18:23.912Z,100.00
2022-10-08T10:21:06.738Z,100.00
2022-10-08T10:24:22.781Z,100.00
2022-10-08T10:26:59.506Z,100.00
2022-10-08T10:29:35.528Z,100.00
2022-10-08T10:32:31.688Z,100.00
2022-10-08T10:35:16.551Z,100.00
2022-10-08T10:38:27.178Z,100.00
2022-10-08T10:41:11.383Z,100.00
2022-10-08T10:44:01.857Z,100.00
2022-10-08T10:46:35.195Z,100.00
2022-10-08T10:49:20.288Z,100.00
2022-10-08T10:52:32.355Z,100.00
2022-10-08T10:55:22.036Z,100.00
2022-10-08T10:58:39.024Z,100.00
2022-10-08T11:01:45.891Z,100.00
2022-10-08T11:04:57.123Z,100.00
2022-10-08T11:07:58.850Z,100.00
2022-10-08T11:10:47.947Z,100.00
2022-10-08T11:13:44.423Z,100.00
2022-10-08T11:16:35.496Z,100.00
2022-10-08T11:19:09.695Z,100.00
2022-10-08T11:22:26.310Z,100.00
2022-10-08T11:25:12.212Z,100.00
2022-10-08T11:28:14.086Z,100.00
2022-10-08T11:30:54.859Z,100.00
2022-10-08T11:33:32.148Z,100.00
2022-10-08T11:36:57.225Z,100.00
2022-10-08T11:40:23.520Z,100.00
2022-10-08T11:43:17.216Z,100.00
2022-10-08T11:45:57.746Z,100.00
2022-10-08T11:48:42.922Z,100.00
2022-10-08T11:51:41.543Z,100.00
2022-10-08T11:54:14.963Z,100.00
2022-10-08T11:56:46.507Z,100.00
2022-10-08T11:59:43.184Z,100.00
2022-10-08T12:02:36.146Z,100.00
2022-10-08T12:05:53.695Z,100.00
2022-10-08T12:09:01.624Z,100.00
2022-10-08T12:11:54.384Z,100.00
2022-10-08T12:14:25.200Z,100.00
2022-10-08T12:17:19.578Z,100.00
2022-10-08T12:20:23.242Z,100.00
2022-10-08T12:23:42.245Z,100.00
2022-10-08T12:26:23.214Z,97.99
2022-10-08T12:28:52.268Z,71.60
2022-10-08T12:32:04.629Z,67.82
2022-10-08T12:34:38.378Z,70.94
2022-10-08T12:37:44.136Z,78.25
2022-10-08T12:41:15.984Z,82.02
2022-10-08T12:44:08.587Z,80.69
2022-10-08T12:47:15.593Z,92.03
2022-10-08T12:50:21.791Z,82.33
2022-10-08T12:52:56.940Z,73.86
2022-10-08T12:55:30.812Z,76.04
2022-10-08T12:58:05.612Z,64.93
2022-10-08T13:00:38.750Z,63.98
2022-10-08T13:03:20.656Z,63.25
2022-10-08T13:05:50.639Z,66.01
2022-10-08T13:08:39.028Z,75.86
2022-10-08T13:11:17.015Z,100.00
2022-10-08T13:13:56.105Z,100.00
2022-10-08T13:19:21.553Z,100.00
2022-10-08T13:22:09.535Z,100.00
2022-10-08T13:24:50.395Z,100.00
2022-10-08T13:27:34.313Z,100.00
2022-10-08T13:30:44.817Z,100.00
2022-10-08T13:33:22.808Z,100.00
2022-10-08T13:36:06.679Z,100.00
2022-10-08T13:38:40.723Z,100.00
2022-10-08T13:41:24.430Z,100.00
2022-10-08T13:44:02.173Z,100.00
2022-10-08T13:46:31.459Z,100.00
2022-10-08T13:49:07.722Z,100.00
2022-10-08T13:51:42.706Z,100.00
2022-10-08T13:54:19.763Z,100.00
2022-10-08T13:56:48.925Z,100.00
2022-10-08T13:59:20.668Z,100.00
2022-10-08T14:02:02.313Z,100.00
2022-10-08T14:04:41.521Z,100.00
2022-10-08T14:10:21.713Z,100.00
2022-10-08T14:12:54.128Z,100.00
2022-10-08T14:15:27.090Z,100.00
2022-10-08T14:17:55.260Z,100.00
2022-10-08T14:20:29.756Z,100.00
2022-10-08T14:23:14.482Z,100.00
2022-10-08T14:25:47.988Z,100.00
2022-10-08T14:28:21.710Z,100.00
2022-10-08T14:30:56.223Z,100.00
2022-10-08T14:33:32.333Z,100.00
2022-10-08T14:36:02.790Z,100.00
2022-10-08T14:38:37.450Z,100.00
2022-10-08T14:41:19.023Z,100.00
2022-10-08T14:43:51.015Z,100.00
2022-10-08T14:46:19.901Z,100.00
2022-10-08T14:49:03.998Z,100.00
2022-10-08T14:51:39.864Z,100.00
2022-10-08T14:54:20.311Z,100.00
2022-10-08T14:56:50.831Z,100.00
2022-10-08T14:59:22.274Z,100.00
2022-10-08T15:02:07.001Z,100.00
2022-10-08T15:04:37.130Z,100.00
2022-10-08T15:07:08.907Z,100.00
2022-10-08T15:09:40.617Z,100.00
2022-10-08T15:12:18.480Z,100.00
2022-10-08T15:15:00.330Z,100.00
2022-10-08T15:17:45.933Z,100.00
2022-10-08T15:20:21.547Z,100.00
2022-10-08T15:22:51.077Z,100.00
2022-10-08T15:25:21.699Z,100.00
2022-10-08T15:27:49.882Z,100.00
2022-10-08T15:30:27.355Z,100.00
2022-10-08T15:33:02.803Z,100.00
2022-10-08T15:35:35.774Z,100.00
2022-10-08T15:38:06.278Z,100.00
2022-10-08T15:40:40.226Z,100.00
2022-10-08T15:43:16.911Z,100.00
2022-10-08T15:45:49.271Z,100.00
2022-10-08T15:48:19.487Z,100.00
2022-10-08T15:51:06.263Z,100.00
2022-10-08T15:53:45.480Z,100.00
2022-10-08T15:56:23.612Z,100.00
2022-10-08T15:58:54.531Z,100.00
2022-10-08T16:04:20.819Z,100.00
2022-10-08T16:07:07.085Z,100.00
2022-10-08T16:09:42.076Z,100.00
2022-10-08T16:14:58.995Z,100.00
